KCBK/CBK METAR and TAF weather

Enter ICAO airport designator
Station Type Date Time Source
KCBK METAR 2019/06/18 12:35 UTC NOAA

KCBK 181235Z AUTO 00000KT 5SM BR OVC003 15/15 A3001 RMK AO2


Station Type Date Time Source
KCBK Decoded METAR 2019/06/18 12:35 UTC NOAA

Station name not available
Jun 18, 2019 - 08:35 AM EDT / 2019.06.18 1235 UTC
Wind: Calm:0
Visibility: 5 mile(s):0
Sky conditions: overcast
Weather: mist
Temperature: 59 F (15 C)
Dew Point: 59 F (15 C)
Relative Humidity: 100%
Pressure (altimeter): 30.01 in. Hg (1016 hPa)
ob: KCBK 181235Z AUTO 00000KT 5SM BR OVC003 15/15 A3001 RMK AO2
cycle: 12

Station Type Date Time Source
KCBK TAF UTC NOAA

Error!

Example: see airport list